Terminal Aerodrome Forecast
Issued by NWS Binghamton, NY

Home | Current Version | Previous Version | Text Only | Print | Product List | Glossary On
Versions: 1 2 3 4 5 6 7 8 9 10 11 12 13 14 15 16 17 18 19 20 21 22
000
FTUS41 KBGM 301128
TAFSYR
TAF
KSYR 301128Z 3012/3112 19010KT P6SM OVC100
     FM301800 23012G19KT P6SM -SHRA BKN040 BKN100
      TEMPO 3018/3022 4SM TSRA BR BKN040CB
     FM310500 34012KT 4SM -SHRA BR OVC015
      TEMPO 3108/3112 OVC009=

USA.gov is the U.S. government's official web portal to all federal, state and local government web resources and services.